sensor_id;sensor_type;location;lat;lon;timestamp;pressure;altitude;pressure_sealevel;temperature
38114;BMP180;23926;53.222;6.354;2023-04-21T00:01:11;101701.00;;;11.60
38114;BMP180;23926;53.222;6.354;2023-04-21T00:03:37;101707.00;;;11.50
38114;BMP180;23926;53.222;6.354;2023-04-21T00:06:06;101688.00;;;11.60
38114;BMP180;23926;53.222;6.354;2023-04-21T00:08:32;101689.00;;;11.50
38114;BMP180;23926;53.222;6.354;2023-04-21T00:10:58;101689.00;;;11.50
38114;BMP180;23926;53.222;6.354;2023-04-21T00:13:23;101683.00;;;11.50
38114;BMP180;23926;53.222;6.354;2023-04-21T00:15:49;101683.00;;;11.50
38114;BMP180;23926;53.222;6.354;2023-04-21T00:18:15;101685.00;;;11.50
38114;BMP180;23926;53.222;6.354;2023-04-21T00:20:42;101680.00;;;11.50
38114;BMP180;23926;53.222;6.354;2023-04-21T00:23:07;101683.00;;;11.50
38114;BMP180;23926;53.222;6.354;2023-04-21T00:25:35;101676.00;;;11.40
38114;BMP180;23926;53.222;6.354;2023-04-21T00:28:00;101674.00;;;11.40
38114;BMP180;23926;53.222;6.354;2023-04-21T00:30:26;101682.00;;;11.50
38114;BMP180;23926;53.222;6.354;2023-04-21T00:32:51;101663.00;;;11.40
38114;BMP180;23926;53.222;6.354;2023-04-21T00:35:16;101658.00;;;11.30
38114;BMP180;23926;53.222;6.354;2023-04-21T00:37:42;101658.00;;;11.20
38114;BMP180;23926;53.222;6.354;2023-04-21T00:40:08;101660.00;;;11.10
38114;BMP180;23926;53.222;6.354;2023-04-21T00:42:34;101654.00;;;11.10
38114;BMP180;23926;53.222;6.354;2023-04-21T00:44:59;101642.00;;;10.90
38114;BMP180;23926;53.222;6.354;2023-04-21T00:47:25;101651.00;;;10.90
38114;BMP180;23926;53.222;6.354;2023-04-21T00:49:50;101641.00;;;10.90
38114;BMP180;23926;53.222;6.354;2023-04-21T00:52:16;101638.00;;;10.80
38114;BMP180;23926;53.222;6.354;2023-04-21T00:54:43;101630.00;;;10.80
38114;BMP180;23926;53.222;6.354;2023-04-21T00:57:09;101630.00;;;10.80
38114;BMP180;23926;53.222;6.354;2023-04-21T00:59:35;101628.00;;;10.70
38114;BMP180;23926;53.222;6.354;2023-04-21T01:02:01;101614.00;;;10.80
38114;BMP180;23926;53.222;6.354;2023-04-21T01:04:27;101627.00;;;10.70
38114;BMP180;23926;53.222;6.354;2023-04-21T01:06:52;101623.00;;;10.60
38114;BMP180;23926;53.222;6.354;2023-04-21T01:09:19;101613.00;;;10.60
38114;BMP180;23926;53.222;6.354;2023-04-21T01:12:08;101614.00;;;10.60
38114;BMP180;23926;53.222;6.354;2023-04-21T01:14:34;101601.00;;;10.60
38114;BMP180;23926;53.222;6.354;2023-04-21T01:17:00;101618.00;;;10.60
38114;BMP180;23926;53.222;6.354;2023-04-21T01:19:30;101615.00;;;10.60
38114;BMP180;23926;53.222;6.354;2023-04-21T01:21:56;101622.00;;;10.60
38114;BMP180;23926;53.222;6.354;2023-04-21T01:24:34;101609.00;;;10.50
38114;BMP180;23926;53.222;6.354;2023-04-21T01:27:00;101597.00;;;10.50
38114;BMP180;23926;53.222;6.354;2023-04-21T01:29:25;101603.00;;;10.50
38114;BMP180;23926;53.222;6.354;2023-04-21T01:31:51;101604.00;;;10.60
38114;BMP180;23926;53.222;6.354;2023-04-21T01:34:16;101583.00;;;10.60
38114;BMP180;23926;53.222;6.354;2023-04-21T01:36:41;101592.00;;;10.50
38114;BMP180;23926;53.222;6.354;2023-04-21T01:39:07;101597.00;;;10.40
38114;BMP180;23926;53.222;6.354;2023-04-21T01:41:32;101596.00;;;10.40
38114;BMP180;23926;53.222;6.354;2023-04-21T01:43:58;101583.00;;;10.40
38114;BMP180;23926;53.222;6.354;2023-04-21T01:46:23;101591.00;;;10.40
38114;BMP180;23926;53.222;6.354;2023-04-21T01:48:49;101589.00;;;10.40
38114;BMP180;23926;53.222;6.354;2023-04-21T01:51:14;101585.00;;;10.40
38114;BMP180;23926;53.222;6.354;2023-04-21T01:53:40;101581.00;;;10.30
38114;BMP180;23926;53.222;6.354;2023-04-21T01:56:05;101580.00;;;10.40
38114;BMP180;23926;53.222;6.354;2023-04-21T01:58:31;101593.00;;;10.40
38114;BMP180;23926;53.222;6.354;2023-04-21T02:00:56;101577.00;;;10.40
38114;BMP180;23926;53.222;6.354;2023-04-21T02:03:22;101587.00;;;10.40
38114;BMP180;23926;53.222;6.354;2023-04-21T02:05:49;101584.00;;;10.50
38114;BMP180;23926;53.222;6.354;2023-04-21T02:08:15;101578.00;;;10.40
38114;BMP180;23926;53.222;6.354;2023-04-21T02:10:41;101589.00;;;10.40
38114;BMP180;23926;53.222;6.354;2023-04-21T02:13:06;101589.00;;;10.40
38114;BMP180;23926;53.222;6.354;2023-04-21T02:15:32;101581.00;;;10.40
38114;BMP180;23926;53.222;6.354;2023-04-21T02:17:57;101575.00;;;10.40
38114;BMP180;23926;53.222;6.354;2023-04-21T02:20:23;101575.00;;;10.30
38114;BMP180;23926;53.222;6.354;2023-04-21T02:22:48;101576.00;;;10.30
38114;BMP180;23926;53.222;6.354;2023-04-21T02:25:13;101575.00;;;10.30
38114;BMP180;23926;53.222;6.354;2023-04-21T02:27:39;101561.00;;;10.30
38114;BMP180;23926;53.222;6.354;2023-04-21T02:30:05;101555.00;;;10.20
38114;BMP180;23926;53.222;6.354;2023-04-21T02:32:31;101557.00;;;10.20
38114;BMP180;23926;53.222;6.354;2023-04-21T02:34:56;101550.00;;;10.20
38114;BMP180;23926;53.222;6.354;2023-04-21T02:37:22;101559.00;;;10.20
38114;BMP180;23926;53.222;6.354;2023-04-21T02:39:48;101557.00;;;10.20
38114;BMP180;23926;53.222;6.354;2023-04-21T02:42:13;101543.00;;;10.20
38114;BMP180;23926;53.222;6.354;2023-04-21T02:44:39;101556.00;;;10.10
38114;BMP180;23926;53.222;6.354;2023-04-21T02:47:04;101558.00;;;10.10
38114;BMP180;23926;53.222;6.354;2023-04-21T02:49:30;101559.00;;;10.10
38114;BMP180;23926;53.222;6.354;2023-04-21T02:51:56;101568.00;;;9.90
38114;BMP180;23926;53.222;6.354;2023-04-21T02:54:22;101551.00;;;10.00
38114;BMP180;23926;53.222;6.354;2023-04-21T02:56:47;101559.00;;;10.00
38114;BMP180;23926;53.222;6.354;2023-04-21T02:59:12;101556.00;;;10.00
38114;BMP180;23926;53.222;6.354;2023-04-21T03:01:40;101554.00;;;10.00
38114;BMP180;23926;53.222;6.354;2023-04-21T03:04:06;101550.00;;;10.00
38114;BMP180;23926;53.222;6.354;2023-04-21T03:06:32;101552.00;;;10.00
38114;BMP180;23926;53.222;6.354;2023-04-21T03:08:57;101546.00;;;9.90
38114;BMP180;23926;53.222;6.354;2023-04-21T03:11:23;101554.00;;;10.10
38114;BMP180;23926;53.222;6.354;2023-04-21T03:13:48;101549.00;;;9.90
38114;BMP180;23926;53.222;6.354;2023-04-21T03:16:13;101557.00;;;9.90
38114;BMP180;23926;53.222;6.354;2023-04-21T03:18:39;101560.00;;;10.00
38114;BMP180;23926;53.222;6.354;2023-04-21T03:21:04;101564.00;;;10.00
38114;BMP180;23926;53.222;6.354;2023-04-21T03:23:30;101561.00;;;10.00
38114;BMP180;23926;53.222;6.354;2023-04-21T03:25:55;101545.00;;;10.10
38114;BMP180;23926;53.222;6.354;2023-04-21T03:28:20;101571.00;;;10.00
38114;BMP180;23926;53.222;6.354;2023-04-21T03:30:46;101572.00;;;10.10
38114;BMP180;23926;53.222;6.354;2023-04-21T03:33:11;101569.00;;;10.00
38114;BMP180;23926;53.222;6.354;2023-04-21T03:35:36;101554.00;;;10.00
38114;BMP180;23926;53.222;6.354;2023-04-21T03:38:02;101570.00;;;9.90
38114;BMP180;23926;53.222;6.354;2023-04-21T03:40:27;101566.00;;;9.90
38114;BMP180;23926;53.222;6.354;2023-04-21T03:42:53;101560.00;;;9.90
38114;BMP180;23926;53.222;6.354;2023-04-21T03:45:18;101552.00;;;9.80
38114;BMP180;23926;53.222;6.354;2023-04-21T03:47:47;101559.00;;;9.80
38114;BMP180;23926;53.222;6.354;2023-04-21T03:50:12;101557.00;;;9.70
38114;BMP180;23926;53.222;6.354;2023-04-21T03:52:37;101560.00;;;9.70
38114;BMP180;23926;53.222;6.354;2023-04-21T03:55:03;101554.00;;;9.70
38114;BMP180;23926;53.222;6.354;2023-04-21T03:57:29;101550.00;;;9.70
38114;BMP180;23926;53.222;6.354;2023-04-21T03:59:55;101534.00;;;9.70
38114;BMP180;23926;53.222;6.354;2023-04-21T04:02:20;101535.00;;;9.70
38114;BMP180;23926;53.222;6.354;2023-04-21T04:04:45;101531.00;;;9.60
38114;BMP180;23926;53.222;6.354;2023-04-21T04:07:11;101527.00;;;9.60
38114;BMP180;23926;53.222;6.354;2023-04-21T04:09:36;101533.00;;;9.70
38114;BMP180;23926;53.222;6.354;2023-04-21T04:12:02;101538.00;;;9.70
38114;BMP180;23926;53.222;6.354;2023-04-21T04:14:27;101527.00;;;9.70
38114;BMP180;23926;53.222;6.354;2023-04-21T04:16:53;101529.00;;;9.70
38114;BMP180;23926;53.222;6.354;2023-04-21T04:19:18;101519.00;;;9.70
38114;BMP180;23926;53.222;6.354;2023-04-21T04:21:43;101520.00;;;9.70
38114;BMP180;23926;53.222;6.354;2023-04-21T04:24:09;101514.00;;;9.60
38114;BMP180;23926;53.222;6.354;2023-04-21T04:26:35;101524.00;;;9.70
38114;BMP180;23926;53.222;6.354;2023-04-21T04:29:02;101536.00;;;9.60
38114;BMP180;23926;53.222;6.354;2023-04-21T04:31:30;101518.00;;;9.70
38114;BMP180;23926;53.222;6.354;2023-04-21T04:33:56;101523.00;;;9.70
38114;BMP180;23926;53.222;6.354;2023-04-21T04:36:22;101531.00;;;9.60
38114;BMP180;23926;53.222;6.354;2023-04-21T04:38:48;101531.00;;;9.80
38114;BMP180;23926;53.222;6.354;2023-04-21T04:41:13;101535.00;;;9.80
38114;BMP180;23926;53.222;6.354;2023-04-21T04:43:40;101530.00;;;9.80
38114;BMP180;23926;53.222;6.354;2023-04-21T04:46:07;101533.00;;;9.80
38114;BMP180;23926;53.222;6.354;2023-04-21T04:48:37;101531.00;;;9.90
38114;BMP180;23926;53.222;6.354;2023-04-21T04:51:02;101532.00;;;9.90
38114;BMP180;23926;53.222;6.354;2023-04-21T04:53:28;101532.00;;;9.80
38114;BMP180;23926;53.222;6.354;2023-04-21T04:55:53;101533.00;;;9.80
38114;BMP180;23926;53.222;6.354;2023-04-21T04:58:19;101536.00;;;9.80
38114;BMP180;23926;53.222;6.354;2023-04-21T05:00:45;101550.00;;;9.90
38114;BMP180;23926;53.222;6.354;2023-04-21T05:03:10;101535.00;;;9.90
38114;BMP180;23926;53.222;6.354;2023-04-21T05:05:36;101531.00;;;10.00
38114;BMP180;23926;53.222;6.354;2023-04-21T05:08:01;101527.00;;;10.10
38114;BMP180;23926;53.222;6.354;2023-04-21T05:10:27;101525.00;;;10.20
38114;BMP180;23926;53.222;6.354;2023-04-21T05:12:52;101533.00;;;10.10
38114;BMP180;23926;53.222;6.354;2023-04-21T05:15:17;101532.00;;;10.20
38114;BMP180;23926;53.222;6.354;2023-04-21T05:17:43;101531.00;;;10.30
38114;BMP180;23926;53.222;6.354;2023-04-21T05:20:10;101532.00;;;10.30
38114;BMP180;23926;53.222;6.354;2023-04-21T05:22:38;101535.00;;;10.40
38114;BMP180;23926;53.222;6.354;2023-04-21T05:25:04;101542.00;;;10.50
38114;BMP180;23926;53.222;6.354;2023-04-21T05:27:30;101548.00;;;10.60
38114;BMP180;23926;53.222;6.354;2023-04-21T05:29:55;101555.00;;;10.70
38114;BMP180;23926;53.222;6.354;2023-04-21T05:32:21;101550.00;;;10.70
38114;BMP180;23926;53.222;6.354;2023-04-21T05:34:46;101545.00;;;10.70
38114;BMP180;23926;53.222;6.354;2023-04-21T05:37:12;101534.00;;;10.80
38114;BMP180;23926;53.222;6.354;2023-04-21T05:39:37;101547.00;;;11.00
38114;BMP180;23926;53.222;6.354;2023-04-21T05:42:03;101543.00;;;11.00
38114;BMP180;23926;53.222;6.354;2023-04-21T05:44:28;101557.00;;;11.20
38114;BMP180;23926;53.222;6.354;2023-04-21T05:46:53;101560.00;;;11.20
38114;BMP180;23926;53.222;6.354;2023-04-21T05:49:19;101568.00;;;11.20
38114;BMP180;23926;53.222;6.354;2023-04-21T05:51:44;101556.00;;;11.30
38114;BMP180;23926;53.222;6.354;2023-04-21T05:54:10;101560.00;;;11.40
38114;BMP180;23926;53.222;6.354;2023-04-21T05:56:35;101553.00;;;11.40
38114;BMP180;23926;53.222;6.354;2023-04-21T05:59:01;101561.00;;;11.40
38114;BMP180;23926;53.222;6.354;2023-04-21T06:01:26;101548.00;;;11.50
38114;BMP180;23926;53.222;6.354;2023-04-21T06:03:51;101562.00;;;11.50
38114;BMP180;23926;53.222;6.354;2023-04-21T06:06:17;101555.00;;;11.60
38114;BMP180;23926;53.222;6.354;2023-04-21T06:08:42;101562.00;;;11.70
38114;BMP180;23926;53.222;6.354;2023-04-21T06:11:08;101560.00;;;11.70
38114;BMP180;23926;53.222;6.354;2023-04-21T06:13:34;101546.00;;;11.80
38114;BMP180;23926;53.222;6.354;2023-04-21T06:15:59;101545.00;;;11.90
38114;BMP180;23926;53.222;6.354;2023-04-21T06:18:28;101549.00;;;11.90
38114;BMP180;23926;53.222;6.354;2023-04-21T06:20:54;101543.00;;;11.90
38114;BMP180;23926;53.222;6.354;2023-04-21T06:23:20;101554.00;;;12.10
38114;BMP180;23926;53.222;6.354;2023-04-21T06:25:45;101555.00;;;12.20
38114;BMP180;23926;53.222;6.354;2023-04-21T06:28:11;101553.00;;;12.10
38114;BMP180;23926;53.222;6.354;2023-04-21T06:30:37;101545.00;;;12.20
38114;BMP180;23926;53.222;6.354;2023-04-21T06:33:02;101553.00;;;12.20
38114;BMP180;23926;53.222;6.354;2023-04-21T06:35:28;101552.00;;;12.40
38114;BMP180;23926;53.222;6.354;2023-04-21T06:37:54;101550.00;;;12.40
38114;BMP180;23926;53.222;6.354;2023-04-21T06:40:20;101554.00;;;12.50
38114;BMP180;23926;53.222;6.354;2023-04-21T06:42:45;101559.00;;;12.50
38114;BMP180;23926;53.222;6.354;2023-04-21T06:45:11;101548.00;;;12.60
38114;BMP180;23926;53.222;6.354;2023-04-21T06:47:36;101542.00;;;12.60
38114;BMP180;23926;53.222;6.354;2023-04-21T06:50:01;101556.00;;;12.70
38114;BMP180;23926;53.222;6.354;2023-04-21T06:52:27;101543.00;;;12.80
38114;BMP180;23926;53.222;6.354;2023-04-21T06:54:52;101546.00;;;12.90
38114;BMP180;23926;53.222;6.354;2023-04-21T06:57:18;101544.00;;;13.00
38114;BMP180;23926;53.222;6.354;2023-04-21T06:59:43;101543.00;;;13.00
38114;BMP180;23926;53.222;6.354;2023-04-21T07:02:09;101540.00;;;13.00
38114;BMP180;23926;53.222;6.354;2023-04-21T07:04:34;101551.00;;;13.00
38114;BMP180;23926;53.222;6.354;2023-04-21T07:07:00;101554.00;;;13.10
38114;BMP180;23926;53.222;6.354;2023-04-21T07:09:25;101553.00;;;13.10
38114;BMP180;23926;53.222;6.354;2023-04-21T07:11:53;101555.00;;;13.20
38114;BMP180;23926;53.222;6.354;2023-04-21T07:14:19;101546.00;;;13.30
38114;BMP180;23926;53.222;6.354;2023-04-21T07:16:44;101533.00;;;13.40
38114;BMP180;23926;53.222;6.354;2023-04-21T07:19:09;101535.00;;;13.50
38114;BMP180;23926;53.222;6.354;2023-04-21T07:21:35;101537.00;;;13.60
38114;BMP180;23926;53.222;6.354;2023-04-21T07:24:01;101544.00;;;13.60
38114;BMP180;23926;53.222;6.354;2023-04-21T07:26:27;101563.00;;;13.70
38114;BMP180;23926;53.222;6.354;2023-04-21T07:28:52;101548.00;;;13.80
38114;BMP180;23926;53.222;6.354;2023-04-21T07:31:19;101553.00;;;14.00
38114;BMP180;23926;53.222;6.354;2023-04-21T07:33:45;101544.00;;;14.00
38114;BMP180;23926;53.222;6.354;2023-04-21T07:36:10;101543.00;;;14.10
38114;BMP180;23926;53.222;6.354;2023-04-21T07:38:35;101546.00;;;14.10
38114;BMP180;23926;53.222;6.354;2023-04-21T07:41:03;101551.00;;;14.30
38114;BMP180;23926;53.222;6.354;2023-04-21T07:43:29;101541.00;;;14.30
38114;BMP180;23926;53.222;6.354;2023-04-21T07:45:56;101558.00;;;14.40
38114;BMP180;23926;53.222;6.354;2023-04-21T07:48:21;101555.00;;;14.50
38114;BMP180;23926;53.222;6.354;2023-04-21T07:50:47;101546.00;;;14.60
38114;BMP180;23926;53.222;6.354;2023-04-21T07:53:14;101539.00;;;14.70
38114;BMP180;23926;53.222;6.354;2023-04-21T07:55:40;101549.00;;;14.80
38114;BMP180;23926;53.222;6.354;2023-04-21T07:58:05;101554.00;;;14.90
38114;BMP180;23926;53.222;6.354;2023-04-21T08:00:30;101546.00;;;15.00
38114;BMP180;23926;53.222;6.354;2023-04-21T08:02:56;101536.00;;;15.10
38114;BMP180;23926;53.222;6.354;2023-04-21T08:05:21;101538.00;;;15.10
38114;BMP180;23926;53.222;6.354;2023-04-21T08:07:47;101531.00;;;15.20
38114;BMP180;23926;53.222;6.354;2023-04-21T08:10:12;101522.00;;;15.30
38114;BMP180;23926;53.222;6.354;2023-04-21T08:12:37;101525.00;;;15.40
38114;BMP180;23926;53.222;6.354;2023-04-21T08:15:03;101521.00;;;15.40
38114;BMP180;23926;53.222;6.354;2023-04-21T08:17:32;101521.00;;;15.30
38114;BMP180;23926;53.222;6.354;2023-04-21T08:19:58;101531.00;;;15.50
38114;BMP180;23926;53.222;6.354;2023-04-21T08:22:23;101524.00;;;15.70
38114;BMP180;23926;53.222;6.354;2023-04-21T08:24:49;101524.00;;;15.80
38114;BMP180;23926;53.222;6.354;2023-04-21T08:27:14;101529.00;;;15.80
38114;BMP180;23926;53.222;6.354;2023-04-21T08:29:39;101527.00;;;15.80
38114;BMP180;23926;53.222;6.354;2023-04-21T08:32:05;101529.00;;;15.90
38114;BMP180;23926;53.222;6.354;2023-04-21T08:34:30;101520.00;;;15.90
38114;BMP180;23926;53.222;6.354;2023-04-21T08:36:56;101524.00;;;16.00
38114;BMP180;23926;53.222;6.354;2023-04-21T08:39:21;101528.00;;;16.00
38114;BMP180;23926;53.222;6.354;2023-04-21T08:41:46;101529.00;;;16.10
38114;BMP180;23926;53.222;6.354;2023-04-21T08:44:12;101514.00;;;16.30
38114;BMP180;23926;53.222;6.354;2023-04-21T08:46:38;101518.00;;;16.40
38114;BMP180;23926;53.222;6.354;2023-04-21T08:49:04;101519.00;;;16.40
38114;BMP180;23926;53.222;6.354;2023-04-21T08:51:30;101507.00;;;16.60
38114;BMP180;23926;53.222;6.354;2023-04-21T08:53:56;101508.00;;;16.70
38114;BMP180;23926;53.222;6.354;2023-04-21T08:56:24;101528.00;;;16.80
38114;BMP180;23926;53.222;6.354;2023-04-21T08:58:50;101532.00;;;16.80
38114;BMP180;23926;53.222;6.354;2023-04-21T09:01:16;101519.00;;;16.80
38114;BMP180;23926;53.222;6.354;2023-04-21T09:03:41;101512.00;;;17.00
38114;BMP180;23926;53.222;6.354;2023-04-21T09:06:08;101514.00;;;17.10
38114;BMP180;23926;53.222;6.354;2023-04-21T09:08:36;101501.00;;;17.10
38114;BMP180;23926;53.222;6.354;2023-04-21T09:11:02;101512.00;;;17.30
38114;BMP180;23926;53.222;6.354;2023-04-21T09:13:37;101517.00;;;17.20
38114;BMP180;23926;53.222;6.354;2023-04-21T09:16:14;101509.00;;;17.20
38114;BMP180;23926;53.222;6.354;2023-04-21T09:18:40;101518.00;;;17.20
38114;BMP180;23926;53.222;6.354;2023-04-21T09:21:15;101514.00;;;17.50
38114;BMP180;23926;53.222;6.354;2023-04-21T09:23:49;101501.00;;;17.50
38114;BMP180;23926;53.222;6.354;2023-04-21T09:26:16;101508.00;;;17.70
38114;BMP180;23926;53.222;6.354;2023-04-21T09:28:43;101502.00;;;17.80
38114;BMP180;23926;53.222;6.354;2023-04-21T09:31:16;101501.00;;;17.90
38114;BMP180;23926;53.222;6.354;2023-04-21T09:33:48;101502.00;;;17.90
38114;BMP180;23926;53.222;6.354;2023-04-21T09:36:21;101512.00;;;18.00
38114;BMP180;23926;53.222;6.354;2023-04-21T09:41:21;101498.00;;;17.90
38114;BMP180;23926;53.222;6.354;2023-04-21T09:43:47;101507.00;;;17.90
38114;BMP180;23926;53.222;6.354;2023-04-21T09:46:15;101504.00;;;18.20
38114;BMP180;23926;53.222;6.354;2023-04-21T09:48:43;101502.00;;;18.20
38114;BMP180;23926;53.222;6.354;2023-04-21T09:51:11;101503.00;;;18.20
38114;BMP180;23926;53.222;6.354;2023-04-21T09:53:39;101495.00;;;18.30
38114;BMP180;23926;53.222;6.354;2023-04-21T09:56:11;101488.00;;;18.50
38114;BMP180;23926;53.222;6.354;2023-04-21T09:58:40;101491.00;;;18.60
38114;BMP180;23926;53.222;6.354;2023-04-21T10:01:08;101491.00;;;18.60
38114;BMP180;23926;53.222;6.354;2023-04-21T10:03:36;101484.00;;;18.60
38114;BMP180;23926;53.222;6.354;2023-04-21T10:06:04;101489.00;;;18.60
38114;BMP180;23926;53.222;6.354;2023-04-21T10:08:29;101485.00;;;18.70
38114;BMP180;23926;53.222;6.354;2023-04-21T10:10:55;101465.00;;;18.90
38114;BMP180;23926;53.222;6.354;2023-04-21T10:13:21;101480.00;;;19.00
38114;BMP180;23926;53.222;6.354;2023-04-21T10:15:47;101472.00;;;19.00
38114;BMP180;23926;53.222;6.354;2023-04-21T10:18:22;101462.00;;;19.00
38114;BMP180;23926;53.222;6.354;2023-04-21T10:21:05;101470.00;;;19.10
38114;BMP180;23926;53.222;6.354;2023-04-21T10:26:05;101470.00;;;19.20
38114;BMP180;23926;53.222;6.354;2023-04-21T10:28:44;101472.00;;;19.30
38114;BMP180;23926;53.222;6.354;2023-04-21T10:31:25;101455.00;;;19.40
38114;BMP180;23926;53.222;6.354;2023-04-21T10:39:35;101435.00;;;19.40
38114;BMP180;23926;53.222;6.354;2023-04-21T10:47:47;101426.00;;;19.50
38114;BMP180;23926;53.222;6.354;2023-04-21T10:50:19;101419.00;;;19.50
38114;BMP180;23926;53.222;6.354;2023-04-21T10:55:24;101416.00;;;19.80
38114;BMP180;23926;53.222;6.354;2023-04-21T10:57:49;101411.00;;;19.80
38114;BMP180;23926;53.222;6.354;2023-04-21T11:00:20;101408.00;;;19.90
38114;BMP180;23926;53.222;6.354;2023-04-21T11:03:03;101405.00;;;20.00
38114;BMP180;23926;53.222;6.354;2023-04-21T11:05:40;101401.00;;;20.00
38114;BMP180;23926;53.222;6.354;2023-04-21T11:08:11;101402.00;;;19.90
38114;BMP180;23926;53.222;6.354;2023-04-21T11:10:52;101404.00;;;19.80
38114;BMP180;23926;53.222;6.354;2023-04-21T11:13:24;101391.00;;;20.00
38114;BMP180;23926;53.222;6.354;2023-04-21T11:21:11;101381.00;;;20.50
38114;BMP180;23926;53.222;6.354;2023-04-21T11:23:42;101378.00;;;20.70
38114;BMP180;23926;53.222;6.354;2023-04-21T11:26:11;101367.00;;;20.90
38114;BMP180;23926;53.222;6.354;2023-04-21T11:28:39;101357.00;;;21.20
38114;BMP180;23926;53.222;6.354;2023-04-21T11:31:05;101366.00;;;21.30
38114;BMP180;23926;53.222;6.354;2023-04-21T11:33:35;101363.00;;;21.10
38114;BMP180;23926;53.222;6.354;2023-04-21T11:36:07;101351.00;;;21.00
38114;BMP180;23926;53.222;6.354;2023-04-21T11:38:41;101344.00;;;21.00
38114;BMP180;23926;53.222;6.354;2023-04-21T11:41:08;101338.00;;;21.30
38114;BMP180;23926;53.222;6.354;2023-04-21T11:43:35;101331.00;;;21.50
38114;BMP180;23926;53.222;6.354;2023-04-21T11:46:23;101340.00;;;21.60
38114;BMP180;23926;53.222;6.354;2023-04-21T11:49:03;101342.00;;;21.70
38114;BMP180;23926;53.222;6.354;2023-04-21T11:51:37;101328.00;;;21.50
38114;BMP180;23926;53.222;6.354;2023-04-21T11:54:20;101343.00;;;21.50
38114;BMP180;23926;53.222;6.354;2023-04-21T11:56:48;101326.00;;;21.60
38114;BMP180;23926;53.222;6.354;2023-04-21T11:59:16;101333.00;;;21.80
38114;BMP180;23926;53.222;6.354;2023-04-21T12:01:49;101340.00;;;22.00
38114;BMP180;23926;53.222;6.354;2023-04-21T12:04:16;101328.00;;;22.10
38114;BMP180;23926;53.222;6.354;2023-04-21T12:06:43;101319.00;;;22.30
38114;BMP180;23926;53.222;6.354;2023-04-21T12:09:16;101306.00;;;22.40
38114;BMP180;23926;53.222;6.354;2023-04-21T12:11:42;101317.00;;;22.40
38114;BMP180;23926;53.222;6.354;2023-04-21T12:14:07;101308.00;;;22.80
38114;BMP180;23926;53.222;6.354;2023-04-21T12:16:36;101319.00;;;22.90
38114;BMP180;23926;53.222;6.354;2023-04-21T12:19:01;101306.00;;;22.80
38114;BMP180;23926;53.222;6.354;2023-04-21T12:21:27;101308.00;;;22.60
38114;BMP180;23926;53.222;6.354;2023-04-21T12:23:53;101301.00;;;22.40
38114;BMP180;23926;53.222;6.354;2023-04-21T12:26:19;101301.00;;;22.10
38114;BMP180;23926;53.222;6.354;2023-04-21T12:28:45;101300.00;;;22.10
38114;BMP180;23926;53.222;6.354;2023-04-21T12:31:10;101310.00;;;22.10
38114;BMP180;23926;53.222;6.354;2023-04-21T12:33:36;101304.00;;;22.00
38114;BMP180;23926;53.222;6.354;2023-04-21T12:36:01;101299.00;;;22.10
38114;BMP180;23926;53.222;6.354;2023-04-21T12:38:27;101297.00;;;22.40
38114;BMP180;23926;53.222;6.354;2023-04-21T12:40:52;101293.00;;;22.80
38114;BMP180;23926;53.222;6.354;2023-04-21T12:43:17;101297.00;;;23.10
38114;BMP180;23926;53.222;6.354;2023-04-21T12:45:43;101285.00;;;23.30
38114;BMP180;23926;53.222;6.354;2023-04-21T12:48:08;101285.00;;;23.40
38114;BMP180;23926;53.222;6.354;2023-04-21T12:50:33;101292.00;;;23.50
38114;BMP180;23926;53.222;6.354;2023-04-21T12:52:59;101285.00;;;23.50
38114;BMP180;23926;53.222;6.354;2023-04-21T12:55:25;101285.00;;;23.50
38114;BMP180;23926;53.222;6.354;2023-04-21T12:57:50;101285.00;;;23.50
38114;BMP180;23926;53.222;6.354;2023-04-21T13:00:17;101278.00;;;23.50
38114;BMP180;23926;53.222;6.354;2023-04-21T13:02:42;101272.00;;;23.60
38114;BMP180;23926;53.222;6.354;2023-04-21T13:05:08;101272.00;;;23.60
38114;BMP180;23926;53.222;6.354;2023-04-21T13:07:36;101276.00;;;23.60
38114;BMP180;23926;53.222;6.354;2023-04-21T13:10:03;101287.00;;;23.30
38114;BMP180;23926;53.222;6.354;2023-04-21T13:12:30;101272.00;;;23.00
38114;BMP180;23926;53.222;6.354;2023-04-21T13:14:56;101258.00;;;22.90
38114;BMP180;23926;53.222;6.354;2023-04-21T13:17:21;101255.00;;;22.70
38114;BMP180;23926;53.222;6.354;2023-04-21T13:19:47;101250.00;;;22.50
38114;BMP180;23926;53.222;6.354;2023-04-21T13:22:12;101259.00;;;22.40
38114;BMP180;23926;53.222;6.354;2023-04-21T13:24:38;101250.00;;;22.40
38114;BMP180;23926;53.222;6.354;2023-04-21T13:27:04;101248.00;;;22.40
38114;BMP180;23926;53.222;6.354;2023-04-21T13:29:29;101253.00;;;22.60
38114;BMP180;23926;53.222;6.354;2023-04-21T13:31:58;101251.00;;;22.50
38114;BMP180;23926;53.222;6.354;2023-04-21T13:34:23;101230.00;;;22.80
38114;BMP180;23926;53.222;6.354;2023-04-21T13:36:49;101238.00;;;22.80
38114;BMP180;23926;53.222;6.354;2023-04-21T13:39:15;101234.00;;;22.80
38114;BMP180;23926;53.222;6.354;2023-04-21T13:41:40;101232.00;;;22.80
38114;BMP180;23926;53.222;6.354;2023-04-21T13:44:06;101213.00;;;23.00
38114;BMP180;23926;53.222;6.354;2023-04-21T13:46:31;101211.00;;;23.30
38114;BMP180;23926;53.222;6.354;2023-04-21T13:48:57;101212.00;;;23.30
38114;BMP180;23926;53.222;6.354;2023-04-21T13:51:23;101204.00;;;23.50
38114;BMP180;23926;53.222;6.354;2023-04-21T13:53:49;101202.00;;;23.50
38114;BMP180;23926;53.222;6.354;2023-04-21T13:56:15;101209.00;;;23.50
38114;BMP180;23926;53.222;6.354;2023-04-21T13:58:41;101199.00;;;23.40
38114;BMP180;23926;53.222;6.354;2023-04-21T14:01:06;101199.00;;;23.30
38114;BMP180;23926;53.222;6.354;2023-04-21T14:03:32;101191.00;;;23.20
38114;BMP180;23926;53.222;6.354;2023-04-21T14:05:57;101190.00;;;23.30
38114;BMP180;23926;53.222;6.354;2023-04-21T14:08:23;101183.00;;;23.40
38114;BMP180;23926;53.222;6.354;2023-04-21T14:10:48;101176.00;;;23.50
38114;BMP180;23926;53.222;6.354;2023-04-21T14:13:14;101183.00;;;23.20
38114;BMP180;23926;53.222;6.354;2023-04-21T14:15:39;101171.00;;;23.10
38114;BMP180;23926;53.222;6.354;2023-04-21T14:18:05;101167.00;;;22.90
38114;BMP180;23926;53.222;6.354;2023-04-21T14:20:30;101153.00;;;22.80